createdAt,value
2023-03-17T00:01:16.376Z,3.76
2023-03-17T00:03:45.431Z,3.69
2023-03-17T00:06:27.649Z,3.91
2023-03-17T00:08:54.072Z,4.01
2023-03-17T00:11:21.114Z,3.63
2023-03-17T00:13:48.775Z,3.76
2023-03-17T00:16:27.095Z,3.83
2023-03-17T00:18:55.055Z,3.70
2023-03-17T00:21:40.043Z,3.96
2023-03-17T00:24:09.617Z,3.80
2023-03-17T00:26:36.004Z,3.92
2023-03-17T00:29:02.307Z,3.96
2023-03-17T00:31:30.082Z,4.16
2023-03-17T00:33:56.984Z,4.06
2023-03-17T00:36:27.930Z,4.05
2023-03-17T00:38:54.791Z,3.93
2023-03-17T00:41:22.473Z,3.92
2023-03-17T00:43:49.399Z,3.85
2023-03-17T00:46:35.402Z,3.62
2023-03-17T00:49:03.348Z,3.73
2023-03-17T00:51:29.639Z,3.64
2023-03-17T00:53:56.876Z,3.73
2023-03-17T00:56:23.339Z,3.57
2023-03-17T00:58:49.702Z,3.35
2023-03-17T01:01:16.158Z,3.33
2023-03-17T01:03:42.674Z,3.65
2023-03-17T01:06:12.906Z,3.58
2023-03-17T01:08:41.400Z,3.47
2023-03-17T01:11:15.971Z,3.68
2023-03-17T01:13:42.277Z,3.53
2023-03-17T01:16:12.553Z,3.52
2023-03-17T01:18:39.757Z,3.62
2023-03-17T01:21:06.586Z,3.41
2023-03-17T01:23:33.080Z,3.59
2023-03-17T01:25:59.378Z,3.46
2023-03-17T01:28:25.736Z,3.62
2023-03-17T01:30:52.184Z,3.50
2023-03-17T01:33:18.964Z,3.57
2023-03-17T01:35:48.505Z,3.34
2023-03-17T01:38:15.214Z,3.47
2023-03-17T01:40:49.384Z,3.45
2023-03-17T01:43:33.580Z,3.47
2023-03-17T01:46:25.178Z,3.36
2023-03-17T01:48:57.635Z,3.39
2023-03-17T01:51:34.538Z,3.46
2023-03-17T01:54:04.805Z,3.25
2023-03-17T01:56:31.363Z,3.33
2023-03-17T01:59:01.632Z,3.27
2023-03-17T02:01:33.493Z,3.50
2023-03-17T02:04:00.798Z,3.22
2023-03-17T02:06:27.399Z,3.12
2023-03-17T02:08:53.906Z,3.09
2023-03-17T02:11:21.010Z,3.07
2023-03-17T02:13:47.427Z,3.05
2023-03-17T02:16:16.078Z,3.19
2023-03-17T02:18:43.163Z,3.29
2023-03-17T02:21:45.109Z,3.33
2023-03-17T02:24:27.743Z,2.96
2023-03-17T02:26:56.760Z,3.17
2023-03-17T02:29:23.687Z,3.29
2023-03-17T02:31:50.510Z,3.01
2023-03-17T02:34:17.555Z,3.21
2023-03-17T02:36:44.140Z,3.33
2023-03-17T02:39:11.010Z,3.40
2023-03-17T02:41:37.882Z,3.34
2023-03-17T02:44:04.657Z,3.21
2023-03-17T02:46:31.136Z,3.23
2023-03-17T02:48:59.581Z,3.21
2023-03-17T02:51:26.102Z,3.06
2023-03-17T02:53:52.506Z,3.03
2023-03-17T02:56:18.830Z,2.88
2023-03-17T02:58:45.319Z,2.84
2023-03-17T03:01:11.866Z,2.80
2023-03-17T03:03:38.414Z,2.89
2023-03-17T03:06:05.116Z,2.81
2023-03-17T03:08:31.504Z,2.89
2023-03-17T03:10:57.935Z,2.69
2023-03-17T03:13:24.298Z,2.81
2023-03-17T03:15:50.686Z,2.52
2023-03-17T03:18:17.517Z,2.55
2023-03-17T03:20:44.934Z,2.44
2023-03-17T03:23:11.695Z,2.58
2023-03-17T03:25:38.500Z,2.34
2023-03-17T03:28:08.000Z,2.54
2023-03-17T03:30:36.546Z,2.62
2023-03-17T03:33:03.245Z,2.61
2023-03-17T03:35:30.013Z,2.45
2023-03-17T03:37:56.966Z,2.57
2023-03-17T03:40:24.346Z,2.65
2023-03-17T03:42:50.909Z,2.43
2023-03-17T03:45:17.370Z,2.26
2023-03-17T03:47:43.701Z,2.55
2023-03-17T03:50:11.161Z,2.55
2023-03-17T03:52:37.672Z,2.39
2023-03-17T03:55:04.231Z,2.24
2023-03-17T03:57:30.609Z,2.24
2023-03-17T03:59:57.216Z,2.29
2023-03-17T04:02:23.624Z,2.18
2023-03-17T04:04:50.165Z,2.14
2023-03-17T04:07:16.532Z,2.11
2023-03-17T04:09:42.910Z,2.01
2023-03-17T04:12:09.673Z,2.14
2023-03-17T04:14:36.420Z,2.24
2023-03-17T04:17:04.567Z,2.08
2023-03-17T04:19:31.214Z,2.14
2023-03-17T04:21:57.682Z,2.04
2023-03-17T04:24:24.038Z,2.14
2023-03-17T04:26:50.373Z,2.23
2023-03-17T04:29:16.835Z,2.18
2023-03-17T04:31:43.203Z,2.16
2023-03-17T04:34:15.622Z,1.93
2023-03-17T04:36:43.623Z,2.07
2023-03-17T04:39:10.256Z,2.18
2023-03-17T04:41:36.619Z,2.24
2023-03-17T04:44:02.986Z,2.10
2023-03-17T04:46:29.468Z,1.99
2023-03-17T04:48:57.159Z,2.28
2023-03-17T04:51:23.986Z,2.19
2023-03-17T04:53:50.539Z,2.07
2023-03-17T04:56:16.869Z,2.26
2023-03-17T04:58:43.270Z,2.10
2023-03-17T05:01:09.748Z,2.02
2023-03-17T05:03:36.663Z,1.94
2023-03-17T05:06:04.073Z,1.76
2023-03-17T05:08:31.038Z,1.77
2023-03-17T05:10:58.342Z,1.82
2023-03-17T05:13:25.882Z,1.92
2023-03-17T05:15:54.310Z,1.93
2023-03-17T05:18:24.019Z,1.80
2023-03-17T05:20:50.669Z,1.93
2023-03-17T05:23:17.037Z,1.82
2023-03-17T05:25:43.927Z,1.91
2023-03-17T05:28:10.249Z,1.96
2023-03-17T05:30:37.833Z,2.09
2023-03-17T05:33:05.093Z,1.90
2023-03-17T05:35:32.028Z,1.90
2023-03-17T05:37:58.318Z,1.72
2023-03-17T05:40:24.748Z,1.69
2023-03-17T05:42:51.495Z,1.68
2023-03-17T05:45:18.562Z,1.62
2023-03-17T05:47:45.657Z,1.83
2023-03-17T05:50:12.846Z,1.97
2023-03-17T05:52:39.188Z,1.91
2023-03-17T05:55:07.696Z,1.83
2023-03-17T05:57:34.696Z,1.89
2023-03-17T06:00:01.022Z,1.94
2023-03-17T06:02:27.519Z,1.89
2023-03-17T06:04:53.831Z,1.91
2023-03-17T06:07:20.434Z,1.98
2023-03-17T06:09:46.745Z,2.08
2023-03-17T06:12:13.094Z,1.98
2023-03-17T06:14:39.402Z,1.96
2023-03-17T06:17:06.130Z,2.10
2023-03-17T06:19:32.548Z,1.82
2023-03-17T06:21:59.638Z,1.97
2023-03-17T06:24:26.099Z,2.04
2023-03-17T06:26:52.871Z,2.06
2023-03-17T06:29:19.599Z,1.90
2023-03-17T06:31:50.356Z,1.87
2023-03-17T06:34:21.497Z,2.22
2023-03-17T06:36:48.115Z,2.16
2023-03-17T06:39:15.635Z,2.46
2023-03-17T06:41:42.248Z,2.51
2023-03-17T06:44:08.723Z,2.58
2023-03-17T06:46:35.934Z,2.40
2023-03-17T06:49:03.599Z,2.50
2023-03-17T06:51:31.060Z,2.61
2023-03-17T06:53:58.082Z,2.68
2023-03-17T06:56:30.032Z,2.90
2023-03-17T06:58:57.385Z,2.91
2023-03-17T07:01:23.874Z,3.04
2023-03-17T07:03:50.712Z,3.19
2023-03-17T07:06:17.083Z,3.29
2023-03-17T07:08:43.392Z,3.29
2023-03-17T07:11:09.773Z,3.43
2023-03-17T07:13:37.188Z,3.40
2023-03-17T07:16:04.234Z,3.48
2023-03-17T07:18:34.219Z,3.65
2023-03-17T07:21:02.113Z,3.67
2023-03-17T07:23:29.441Z,3.62
2023-03-17T07:25:57.358Z,3.74
2023-03-17T07:28:24.353Z,3.80
2023-03-17T07:30:51.378Z,3.89
2023-03-17T07:33:21.030Z,3.95
2023-03-17T07:35:48.802Z,4.07
2023-03-17T07:38:16.957Z,4.19
2023-03-17T07:40:45.996Z,4.26
2023-03-17T07:43:12.430Z,4.37
2023-03-17T07:45:39.112Z,4.50
2023-03-17T07:48:06.794Z,4.51
2023-03-17T07:50:34.817Z,4.59
2023-03-17T07:53:01.532Z,4.68
2023-03-17T07:55:27.870Z,4.83
2023-03-17T07:57:54.258Z,4.85
2023-03-17T08:00:21.672Z,4.99
2023-03-17T08:03:03.215Z,5.01
2023-03-17T08:05:34.611Z,5.18
2023-03-17T08:08:00.933Z,5.32
2023-03-17T08:10:27.311Z,5.45
2023-03-17T08:12:53.806Z,5.54
2023-03-17T08:15:20.184Z,5.61
2023-03-17T08:17:46.481Z,5.83
2023-03-17T08:20:13.065Z,5.97
2023-03-17T08:22:39.878Z,6.19
2023-03-17T08:25:06.532Z,6.28
2023-03-17T08:27:33.978Z,6.49
2023-03-17T08:30:00.467Z,6.59
2023-03-17T08:32:27.230Z,6.67
2023-03-17T08:34:54.655Z,6.80
2023-03-17T08:37:22.130Z,6.95
2023-03-17T08:39:48.810Z,7.15
2023-03-17T08:42:15.495Z,7.14
2023-03-17T08:44:43.998Z,7.24
2023-03-17T08:47:10.770Z,7.38
2023-03-17T08:49:37.275Z,7.55
2023-03-17T08:52:04.121Z,7.67
2023-03-17T08:54:30.458Z,7.78
2023-03-17T08:56:57.714Z,7.85
2023-03-17T08:59:24.040Z,7.83
2023-03-17T09:01:50.415Z,7.91
2023-03-17T09:04:16.788Z,7.91
2023-03-17T09:07:01.252Z,7.95
2023-03-17T09:09:30.691Z,7.99
2023-03-17T09:11:57.040Z,8.11
2023-03-17T09:14:24.690Z,8.16
2023-03-17T09:16:51.400Z,8.32
2023-03-17T09:19:17.850Z,8.54
2023-03-17T09:21:44.524Z,8.63
2023-03-17T09:24:11.033Z,8.68
2023-03-17T09:26:37.434Z,8.79
2023-03-17T09:29:04.693Z,8.78
2023-03-17T09:31:32.101Z,8.83
2023-03-17T09:33:58.753Z,8.92
2023-03-17T09:36:26.084Z,8.97
2023-03-17T09:38:52.598Z,9.03
2023-03-17T09:41:24.568Z,9.14
2023-03-17T09:44:02.834Z,9.22
2023-03-17T09:46:49.423Z,9.28
2023-03-17T09:49:22.726Z,9.46
2023-03-17T09:51:49.973Z,9.60
2023-03-17T09:54:25.862Z,9.82
2023-03-17T09:56:59.116Z,10.04
2023-03-17T09:59:29.069Z,10.19
2023-03-17T10:01:55.968Z,10.29
2023-03-17T10:04:22.797Z,10.33
2023-03-17T10:06:49.987Z,10.36
2023-03-17T10:09:19.189Z,10.34
2023-03-17T10:11:54.408Z,10.34
2023-03-17T10:14:35.358Z,10.36
2023-03-17T10:17:13.535Z,10.33
2023-03-17T10:19:56.070Z,10.34
2023-03-17T10:22:31.006Z,10.16
2023-03-17T10:25:32.564Z,10.20
2023-03-17T10:28:09.194Z,10.32
2023-03-17T10:30:35.810Z,10.37
2023-03-17T10:33:06.917Z,10.58
2023-03-17T10:35:36.191Z,10.82
2023-03-17T10:38:17.613Z,11.08
2023-03-17T10:40:54.518Z,11.23
2023-03-17T10:43:21.919Z,11.27
2023-03-17T10:45:58.995Z,11.55
2023-03-17T10:48:25.364Z,11.69
2023-03-17T10:50:52.988Z,11.82
2023-03-17T10:53:28.580Z,11.93
2023-03-17T10:56:06.580Z,11.84
2023-03-17T10:58:47.480Z,11.98
2023-03-17T11:01:22.633Z,12.00
2023-03-17T11:03:49.740Z,11.99
2023-03-17T11:06:30.686Z,12.16
2023-03-17T11:09:02.019Z,12.34
2023-03-17T11:11:34.609Z,12.43
2023-03-17T11:14:05.921Z,12.57
2023-03-17T11:16:37.158Z,12.62
2023-03-17T11:19:08.037Z,12.71
2023-03-17T11:22:04.760Z,12.85
2023-03-17T11:24:33.950Z,12.88
2023-03-17T11:27:05.410Z,12.87
2023-03-17T11:29:52.899Z,12.86
2023-03-17T11:32:34.194Z,12.54
2023-03-17T11:35:01.233Z,12.45
2023-03-17T11:37:51.750Z,12.31
2023-03-17T11:40:24.192Z,12.34
2023-03-17T11:43:05.466Z,12.44
2023-03-17T11:46:10.139Z,12.27
2023-03-17T11:49:10.121Z,12.23
2023-03-17T11:51:57.009Z,12.17
2023-03-17T11:54:47.013Z,12.14
2023-03-17T11:57:26.983Z,12.06
2023-03-17T12:00:31.727Z,11.88
2023-03-17T12:03:19.169Z,11.91
2023-03-17T12:05:54.694Z,11.92
2023-03-17T12:08:30.146Z,11.95
2023-03-17T12:11:00.878Z,11.86
2023-03-17T12:13:48.338Z,11.91
2023-03-17T12:16:52.294Z,12.01
2023-03-17T12:19:26.042Z,12.15
2023-03-17T12:21:54.115Z,12.21
2023-03-17T12:24:28.003Z,12.32
2023-03-17T12:26:54.260Z,12.39
2023-03-17T12:29:31.818Z,12.37
2023-03-17T12:32:08.159Z,12.36
2023-03-17T12:34:38.813Z,12.44
2023-03-17T12:37:05.463Z,12.63
2023-03-17T12:39:37.033Z,12.59
2023-03-17T12:42:28.167Z,12.35
2023-03-17T12:45:00.693Z,12.25
2023-03-17T12:47:56.891Z,12.23
2023-03-17T12:50:31.179Z,12.26
2023-03-17T12:53:24.380Z,12.29
2023-03-17T12:55:53.594Z,12.34
2023-03-17T12:58:35.792Z,12.41
2023-03-17T13:01:08.768Z,12.60
2023-03-17T13:03:42.552Z,12.79
2023-03-17T13:06:19.612Z,12.66
2023-03-17T13:08:46.621Z,12.54
2023-03-17T13:11:18.335Z,12.47
2023-03-17T13:13:58.917Z,12.39
2023-03-17T13:16:32.573Z,12.38
2023-03-17T13:19:25.305Z,12.19
2023-03-17T13:22:24.624Z,12.13
2023-03-17T13:24:53.119Z,12.12
2023-03-17T13:27:25.394Z,12.14
2023-03-17T13:29:52.764Z,12.13
2023-03-17T13:32:25.152Z,12.02
2023-03-17T13:34:53.664Z,12.03
2023-03-17T13:37:28.524Z,12.08
2023-03-17T13:40:14.374Z,12.03
2023-03-17T13:42:58.984Z,12.12
2023-03-17T13:45:46.343Z,12.05
2023-03-17T13:48:36.214Z,12.05
2023-03-17T13:51:14.512Z,12.06
2023-03-17T13:53:55.269Z,12.00
2023-03-17T13:56:48.085Z,11.99
2023-03-17T13:59:16.797Z,11.91
2023-03-17T14:01:54.395Z,11.90
2023-03-17T14:04:25.786Z,11.96
2023-03-17T14:06:56.209Z,11.92
2023-03-17T14:09:27.692Z,11.88
2023-03-17T14:11:56.271Z,11.93
2023-03-17T14:14:47.413Z,11.90
2023-03-17T14:17:19.001Z,11.95
2023-03-17T14:20:04.262Z,11.93
2023-03-17T14:22:30.757Z,11.92
2023-03-17T14:25:01.565Z,11.90
2023-03-17T14:27:32.554Z,11.91
2023-03-17T14:30:05.851Z,11.81
2023-03-17T14:32:32.274Z,11.76
2023-03-17T14:34:59.258Z,11.80
2023-03-17T14:37:26.864Z,11.82
2023-03-17T14:39:57.347Z,11.76
2023-03-17T14:45:08.098Z,11.79
2023-03-17T14:47:40.891Z,11.80
2023-03-17T14:50:20.554Z,11.77
2023-03-17T14:52:52.021Z,11.79
2023-03-17T14:55:19.624Z,11.78
2023-03-17T14:57:52.655Z,11.81
2023-03-17T15:00:33.812Z,11.80
2023-03-17T15:03:05.139Z,11.77
2023-03-17T15:05:43.397Z,11.79
2023-03-17T15:08:48.871Z,11.79
2023-03-17T15:11:21.866Z,11.78
2023-03-17T15:13:50.433Z,11.75
2023-03-17T15:16:24.621Z,11.79
2023-03-17T15:19:01.776Z,11.83
2023-03-17T15:21:41.702Z,11.81
2023-03-17T15:26:46.682Z,11.78
2023-03-17T15:29:13.046Z,11.82
2023-03-17T15:31:39.379Z,11.84
2023-03-17T15:34:05.768Z,11.83
2023-03-17T15:36:33.302Z,11.83
2023-03-17T15:39:00.977Z,11.83
2023-03-17T15:41:27.500Z,11.81
2023-03-17T15:43:53.880Z,11.76
2023-03-17T15:46:27.276Z,11.82
2023-03-17T15:48:53.695Z,11.79
2023-03-17T15:51:20.049Z,11.76
2023-03-17T15:53:47.318Z,11.73
2023-03-17T15:56:18.750Z,11.71
2023-03-17T15:58:47.817Z,11.69
2023-03-17T16:01:15.459Z,11.65
2023-03-17T16:03:42.459Z,11.67
2023-03-17T16:06:17.551Z,11.68
2023-03-17T16:08:44.133Z,11.66
2023-03-17T16:11:15.236Z,11.59
2023-03-17T16:13:41.760Z,11.58
2023-03-17T16:16:16.734Z,11.57
2023-03-17T16:18:43.421Z,11.57
2023-03-17T16:21:09.809Z,11.56
2023-03-17T16:23:37.471Z,11.53
2023-03-17T16:26:15.017Z,11.54
2023-03-17T16:28:44.798Z,11.52
2023-03-17T16:31:17.964Z,11.48
2023-03-17T16:33:44.741Z,11.49
2023-03-17T16:36:15.785Z,11.49
2023-03-17T16:38:42.536Z,11.47
2023-03-17T16:41:20.994Z,11.43
2023-03-17T16:43:59.111Z,11.43
2023-03-17T16:46:26.790Z,11.41
2023-03-17T16:48:53.334Z,11.36
2023-03-17T16:51:19.739Z,11.35
2023-03-17T16:53:46.574Z,11.30
2023-03-17T16:56:17.126Z,11.30
2023-03-17T16:58:43.544Z,11.27
2023-03-17T17:01:14.554Z,11.20
2023-03-17T17:03:42.588Z,11.22
2023-03-17T17:06:10.743Z,11.19
2023-03-17T17:08:37.068Z,11.15
2023-03-17T17:11:03.500Z,11.11
2023-03-17T17:13:29.806Z,11.09
2023-03-17T17:15:56.286Z,11.04
2023-03-17T17:18:24.380Z,11.04
2023-03-17T17:20:52.932Z,10.99
2023-03-17T17:23:26.996Z,10.93
2023-03-17T17:25:54.390Z,10.84
2023-03-17T17:28:22.877Z,10.85
2023-03-17T17:30:50.582Z,10.85
2023-03-17T17:33:17.912Z,10.82
2023-03-17T17:35:45.240Z,10.70
2023-03-17T17:38:17.821Z,10.78
2023-03-17T17:40:44.221Z,10.77
2023-03-17T17:43:10.893Z,10.71
2023-03-17T17:45:37.442Z,10.71
2023-03-17T17:48:04.755Z,10.70
2023-03-17T17:50:31.431Z,10.72
2023-03-17T17:53:05.352Z,10.71
2023-03-17T17:55:33.598Z,10.70
2023-03-17T17:58:00.456Z,10.67
2023-03-17T18:00:27.438Z,10.70
2023-03-17T18:02:53.888Z,10.71
2023-03-17T18:05:20.322Z,10.68
2023-03-17T18:07:46.699Z,10.68
2023-03-17T18:10:19.347Z,10.64
2023-03-17T18:12:45.765Z,10.57
2023-03-17T18:15:12.490Z,10.54
2023-03-17T18:17:38.887Z,10.55
2023-03-17T18:20:06.500Z,10.50
2023-03-17T18:22:33.416Z,10.49
2023-03-17T18:24:59.754Z,10.48
2023-03-17T18:27:26.034Z,10.51
2023-03-17T18:29:54.032Z,10.45
2023-03-17T18:32:20.375Z,10.50
2023-03-17T18:34:48.031Z,10.43
2023-03-17T18:37:17.345Z,10.41
2023-03-17T18:39:44.583Z,10.39
2023-03-17T18:42:11.504Z,10.36
2023-03-17T18:44:39.780Z,10.40
2023-03-17T18:47:07.318Z,10.36
2023-03-17T18:49:34.481Z,10.36
2023-03-17T18:52:01.042Z,10.29
2023-03-17T18:54:28.376Z,10.28
2023-03-17T18:56:55.696Z,10.34
2023-03-17T18:59:22.156Z,10.35
2023-03-17T19:01:48.470Z,10.32
2023-03-17T19:04:14.838Z,10.30
2023-03-17T19:06:42.511Z,10.19
2023-03-17T19:09:10.547Z,10.23
2023-03-17T19:11:39.138Z,10.17
2023-03-17T19:14:07.222Z,10.12
2023-03-17T19:16:35.044Z,10.04
2023-03-17T19:19:01.978Z,10.06
2023-03-17T19:21:28.417Z,10.07
2023-03-17T19:23:58.088Z,10.05
2023-03-17T19:26:24.407Z,10.02
2023-03-17T19:28:50.746Z,9.91
2023-03-17T19:31:17.124Z,9.96
2023-03-17T19:33:43.496Z,9.99
2023-03-17T19:36:12.734Z,9.98
2023-03-17T19:38:39.372Z,9.90
2023-03-17T19:41:05.767Z,9.93
2023-03-17T19:43:40.414Z,9.94
2023-03-17T19:46:07.941Z,9.97
2023-03-17T19:48:34.571Z,9.90
2023-03-17T19:51:01.965Z,9.85
2023-03-17T19:53:28.360Z,9.88
2023-03-17T19:55:56.646Z,9.98
2023-03-17T19:58:23.017Z,9.88
2023-03-17T20:00:49.297Z,9.68
2023-03-17T20:03:15.832Z,9.85
2023-03-17T20:05:45.135Z,9.85
2023-03-17T20:08:11.448Z,9.88
2023-03-17T20:10:38.523Z,9.87
2023-03-17T20:13:05.061Z,9.80
2023-03-17T20:15:31.421Z,9.84
2023-03-17T20:17:57.888Z,9.79
2023-03-17T20:20:24.180Z,9.90
2023-03-17T20:22:50.556Z,9.82
2023-03-17T20:25:16.975Z,9.80
2023-03-17T20:27:43.376Z,9.68
2023-03-17T20:30:12.007Z,9.71
2023-03-17T20:32:39.072Z,9.77
2023-03-17T20:35:07.950Z,9.73
2023-03-17T20:37:35.367Z,9.50
2023-03-17T20:40:04.570Z,9.70
2023-03-17T20:42:31.011Z,9.74
2023-03-17T20:44:57.748Z,9.56
2023-03-17T20:47:24.466Z,9.61
2023-03-17T20:49:50.875Z,9.62
2023-03-17T20:52:17.381Z,9.67
2023-03-17T20:54:43.852Z,9.72
2023-03-17T20:57:13.861Z,9.70
2023-03-17T20:59:41.479Z,9.58
2023-03-17T21:02:17.428Z,9.68
2023-03-17T21:04:47.898Z,9.71
2023-03-17T21:07:17.233Z,9.62
2023-03-17T21:09:44.806Z,9.59
2023-03-17T21:12:16.256Z,9.60
2023-03-17T21:14:42.883Z,9.58
2023-03-17T21:17:10.461Z,9.62
2023-03-17T21:19:37.789Z,9.68
2023-03-17T21:22:05.218Z,9.48
2023-03-17T21:24:33.952Z,9.60
2023-03-17T21:27:03.310Z,9.49
2023-03-17T21:29:31.380Z,9.59
2023-03-17T21:32:00.270Z,9.53
2023-03-17T21:34:28.186Z,9.46
2023-03-17T21:36:54.554Z,9.42
2023-03-17T21:39:20.911Z,9.54
2023-03-17T21:41:49.137Z,9.56
2023-03-17T21:44:15.895Z,9.50
2023-03-17T21:46:46.430Z,9.44
2023-03-17T21:49:13.304Z,9.52
2023-03-17T21:51:39.618Z,9.37
2023-03-17T21:54:05.986Z,9.25
2023-03-17T21:56:32.411Z,9.45
2023-03-17T21:58:58.957Z,9.36
2023-03-17T22:01:26.048Z,9.42
2023-03-17T22:03:52.384Z,9.40
2023-03-17T22:06:20.388Z,9.54
2023-03-17T22:08:47.951Z,9.30
2023-03-17T22:11:17.556Z,9.10
2023-03-17T22:13:44.641Z,9.36
2023-03-17T22:16:12.295Z,9.27
2023-03-17T22:18:39.320Z,9.25
2023-03-17T22:21:06.762Z,9.18
2023-03-17T22:23:37.145Z,9.24
2023-03-17T22:26:03.509Z,9.32
2023-03-17T22:28:30.030Z,9.30
2023-03-17T22:30:56.349Z,9.32
2023-03-17T22:33:23.153Z,9.33
2023-03-17T22:35:49.487Z,9.20
2023-03-17T22:38:15.848Z,9.12
2023-03-17T22:40:42.156Z,9.04
2023-03-17T22:43:08.561Z,9.15
2023-03-17T22:45:35.119Z,9.14
2023-03-17T22:48:01.549Z,9.06
2023-03-17T22:50:28.118Z,9.14
2023-03-17T22:52:54.471Z,9.17
2023-03-17T22:55:20.825Z,9.19
2023-03-17T22:57:47.226Z,9.02
2023-03-17T23:00:16.793Z,9.05
2023-03-17T23:02:44.481Z,9.02
2023-03-17T23:05:11.567Z,9.13
2023-03-17T23:07:49.555Z,9.34
2023-03-17T23:10:21.916Z,9.23
2023-03-17T23:12:49.446Z,9.16
2023-03-17T23:15:18.615Z,8.97
2023-03-17T23:17:45.000Z,9.01
2023-03-17T23:20:11.890Z,9.17
2023-03-17T23:22:38.182Z,9.10
2023-03-17T23:25:05.272Z,9.05
2023-03-17T23:27:31.594Z,9.23
2023-03-17T23:29:59.077Z,9.21
2023-03-17T23:32:25.441Z,9.29
2023-03-17T23:34:51.771Z,9.12
2023-03-17T23:37:18.132Z,9.20
2023-03-17T23:39:44.629Z,9.06
2023-03-17T23:42:11.149Z,9.02
2023-03-17T23:44:37.542Z,8.98
2023-03-17T23:47:04.235Z,9.07
2023-03-17T23:49:30.892Z,9.12
2023-03-17T23:51:58.653Z,9.00
2023-03-17T23:54:25.022Z,8.98
2023-03-17T23:56:52.503Z,9.06
2023-03-17T23:59:18.794Z,9.05
